sensor_id;sensor_type;location;lat;lon;timestamp;pressure;altitude;pressure_sealevel;temperature;humidity
52249;BME280;38541;48.130;8.378;2022-11-20T00:01:23;92235.47;;;1.67;81.39
52249;BME280;38541;48.130;8.378;2022-11-20T00:03:51;92239.94;;;1.60;80.54
52249;BME280;38541;48.130;8.378;2022-11-20T00:06:19;92238.81;;;1.55;80.63
52249;BME280;38541;48.130;8.378;2022-11-20T00:08:46;92247.16;;;1.58;80.93
52249;BME280;38541;48.130;8.378;2022-11-20T00:11:15;92246.13;;;1.59;81.14
52249;BME280;38541;48.130;8.378;2022-11-20T00:13:43;92236.78;;;1.58;80.87
52249;BME280;38541;48.130;8.378;2022-11-20T00:16:11;92239.81;;;1.54;81.47
52249;BME280;38541;48.130;8.378;2022-11-20T00:18:38;92234.84;;;1.53;81.57
52249;BME280;38541;48.130;8.378;2022-11-20T00:21:06;92241.03;;;1.52;81.18
52249;BME280;38541;48.130;8.378;2022-11-20T00:23:33;92244.19;;;1.54;81.12
52249;BME280;38541;48.130;8.378;2022-11-20T00:26:07;92241.97;;;1.58;80.33
52249;BME280;38541;48.130;8.378;2022-11-20T00:28:34;92241.63;;;1.54;81.03
52249;BME280;38541;48.130;8.378;2022-11-20T00:31:12;92236.06;;;1.50;80.58
52249;BME280;38541;48.130;8.378;2022-11-20T00:33:39;92232.16;;;1.48;81.03
52249;BME280;38541;48.130;8.378;2022-11-20T00:36:08;92233.00;;;1.41;80.61
52249;BME280;38541;48.130;8.378;2022-11-20T00:38:35;92236.34;;;1.30;79.30
52249;BME280;38541;48.130;8.378;2022-11-20T00:41:04;92232.25;;;1.22;79.13
52249;BME280;38541;48.130;8.378;2022-11-20T00:43:31;92235.59;;;1.23;78.90
52249;BME280;38541;48.130;8.378;2022-11-20T00:45:59;92229.84;;;1.21;79.57
52249;BME280;38541;48.130;8.378;2022-11-20T00:48:26;92234.31;;;1.13;78.60
52249;BME280;38541;48.130;8.378;2022-11-20T00:50:53;92232.81;;;1.06;77.78
52249;BME280;38541;48.130;8.378;2022-11-20T00:53:20;92231.88;;;1.00;78.47
52249;BME280;38541;48.130;8.378;2022-11-20T00:58:21;92236.91;;;0.95;79.36
52249;BME280;38541;48.130;8.378;2022-11-20T01:00:48;92236.47;;;0.98;79.22
52249;BME280;38541;48.130;8.378;2022-11-20T01:03:19;92232.63;;;0.89;79.65
52249;BME280;38541;48.130;8.378;2022-11-20T01:05:52;92233.97;;;0.91;80.47
52249;BME280;38541;48.130;8.378;2022-11-20T01:08:18;92233.53;;;0.94;80.49
52249;BME280;38541;48.130;8.378;2022-11-20T01:10:45;92237.94;;;0.94;80.19
52249;BME280;38541;48.130;8.378;2022-11-20T01:13:11;92235.13;;;0.95;80.70
52249;BME280;38541;48.130;8.378;2022-11-20T01:16:02;92236.22;;;1.06;80.69
52249;BME280;38541;48.130;8.378;2022-11-20T01:18:29;92241.78;;;1.03;80.76
52249;BME280;38541;48.130;8.378;2022-11-20T01:21:00;92244.25;;;0.98;80.97
52249;BME280;38541;48.130;8.378;2022-11-20T01:23:30;92239.44;;;1.02;80.79
52249;BME280;38541;48.130;8.378;2022-11-20T01:25:57;92251.13;;;1.04;80.73
52249;BME280;38541;48.130;8.378;2022-11-20T01:28:25;92250.94;;;1.06;80.68
52249;BME280;38541;48.130;8.378;2022-11-20T01:30:51;92255.47;;;1.10;80.42
52249;BME280;38541;48.130;8.378;2022-11-20T01:33:17;92259.19;;;1.14;80.43
52249;BME280;38541;48.130;8.378;2022-11-20T01:35:44;92256.59;;;1.14;79.77
52249;BME280;38541;48.130;8.378;2022-11-20T01:38:10;92252.00;;;1.17;81.00
52249;BME280;38541;48.130;8.378;2022-11-20T01:40:37;92256.22;;;1.30;81.02
52249;BME280;38541;48.130;8.378;2022-11-20T01:43:19;92257.75;;;1.37;80.89
52249;BME280;38541;48.130;8.378;2022-11-20T01:48:35;92263.06;;;1.42;80.98
52249;BME280;38541;48.130;8.378;2022-11-20T01:51:04;92261.75;;;1.52;80.93
52249;BME280;38541;48.130;8.378;2022-11-20T01:53:34;92257.88;;;1.61;81.12
52249;BME280;38541;48.130;8.378;2022-11-20T01:56:05;92253.09;;;1.58;80.60
52249;BME280;38541;48.130;8.378;2022-11-20T01:58:35;92261.94;;;1.69;81.57
52249;BME280;38541;48.130;8.378;2022-11-20T02:01:03;92255.16;;;1.68;81.13
52249;BME280;38541;48.130;8.378;2022-11-20T02:03:30;92254.41;;;1.67;81.67
52249;BME280;38541;48.130;8.378;2022-11-20T02:06:11;92261.28;;;1.74;80.98
52249;BME280;38541;48.130;8.378;2022-11-20T02:08:39;92252.78;;;1.85;81.75
52249;BME280;38541;48.130;8.378;2022-11-20T02:11:05;92249.06;;;1.81;81.16
52249;BME280;38541;48.130;8.378;2022-11-20T02:13:33;92251.97;;;1.84;81.95
52249;BME280;38541;48.130;8.378;2022-11-20T02:18:41;92261.28;;;1.74;81.31
52249;BME280;38541;48.130;8.378;2022-11-20T02:21:33;92255.81;;;1.82;81.99
52249;BME280;38541;48.130;8.378;2022-11-20T02:24:05;92251.03;;;1.79;81.00
52249;BME280;38541;48.130;8.378;2022-11-20T02:27:09;92252.84;;;1.78;80.97
52249;BME280;38541;48.130;8.378;2022-11-20T02:29:48;92257.59;;;1.81;81.09
52249;BME280;38541;48.130;8.378;2022-11-20T02:32:30;92255.13;;;1.87;81.47
52249;BME280;38541;48.130;8.378;2022-11-20T02:34:57;92258.28;;;1.89;81.84
52249;BME280;38541;48.130;8.378;2022-11-20T02:37:30;92253.53;;;1.85;81.35
52249;BME280;38541;48.130;8.378;2022-11-20T02:39:58;92249.06;;;1.81;81.10
52249;BME280;38541;48.130;8.378;2022-11-20T02:42:24;92258.41;;;1.82;82.07
52249;BME280;38541;48.130;8.378;2022-11-20T02:44:51;92248.78;;;1.70;81.33
52249;BME280;38541;48.130;8.378;2022-11-20T02:47:17;92247.19;;;1.69;81.54
52249;BME280;38541;48.130;8.378;2022-11-20T02:49:44;92239.88;;;1.66;81.14
52249;BME280;38541;48.130;8.378;2022-11-20T02:52:10;92243.09;;;1.62;80.89
52249;BME280;38541;48.130;8.378;2022-11-20T02:54:37;92239.38;;;1.58;81.02
52249;BME280;38541;48.130;8.378;2022-11-20T02:57:03;92240.16;;;1.58;81.17
52249;BME280;38541;48.130;8.378;2022-11-20T02:59:29;92236.19;;;1.44;81.04
52249;BME280;38541;48.130;8.378;2022-11-20T03:01:56;92241.19;;;1.38;80.35
52249;BME280;38541;48.130;8.378;2022-11-20T03:04:22;92228.69;;;1.35;80.63
52249;BME280;38541;48.130;8.378;2022-11-20T03:06:49;92228.00;;;1.28;80.41
52249;BME280;38541;48.130;8.378;2022-11-20T03:09:15;92225.25;;;1.23;80.77
52249;BME280;38541;48.130;8.378;2022-11-20T03:11:41;92220.53;;;1.20;80.60
52249;BME280;38541;48.130;8.378;2022-11-20T03:14:08;92213.56;;;1.20;80.40
52249;BME280;38541;48.130;8.378;2022-11-20T03:16:35;92215.41;;;1.13;80.41
52249;BME280;38541;48.130;8.378;2022-11-20T03:19:01;92217.50;;;1.04;80.56
52249;BME280;38541;48.130;8.378;2022-11-20T03:21:27;92219.19;;;0.98;79.86
52249;BME280;38541;48.130;8.378;2022-11-20T03:23:54;92220.53;;;1.01;80.05
52249;BME280;38541;48.130;8.378;2022-11-20T03:26:23;92216.16;;;1.02;79.98
52249;BME280;38541;48.130;8.378;2022-11-20T03:28:52;92222.53;;;0.99;80.55
52249;BME280;38541;48.130;8.378;2022-11-20T03:31:21;92227.16;;;0.97;80.16
52249;BME280;38541;48.130;8.378;2022-11-20T03:33:48;92221.59;;;0.93;80.51
52249;BME280;38541;48.130;8.378;2022-11-20T03:36:16;92233.97;;;0.91;80.52
52249;BME280;38541;48.130;8.378;2022-11-20T03:38:43;92236.34;;;0.93;80.50
52249;BME280;38541;48.130;8.378;2022-11-20T03:41:12;92237.34;;;0.92;80.49
52249;BME280;38541;48.130;8.378;2022-11-20T03:43:39;92241.94;;;0.90;80.80
52249;BME280;38541;48.130;8.378;2022-11-20T03:46:06;92235.97;;;0.89;80.67
52249;BME280;38541;48.130;8.378;2022-11-20T03:48:33;92237.41;;;0.85;79.95
52249;BME280;38541;48.130;8.378;2022-11-20T03:51:11;92239.34;;;0.71;79.80
52249;BME280;38541;48.130;8.378;2022-11-20T03:53:39;92237.81;;;0.63;79.35
52249;BME280;38541;48.130;8.378;2022-11-20T03:56:07;92232.75;;;0.75;80.60
52249;BME280;38541;48.130;8.378;2022-11-20T03:58:35;92241.06;;;0.77;80.27
52249;BME280;38541;48.130;8.378;2022-11-20T04:01:07;92238.63;;;0.82;81.74
52249;BME280;38541;48.130;8.378;2022-11-20T04:03:35;92233.19;;;0.91;81.77
52249;BME280;38541;48.130;8.378;2022-11-20T04:08:37;92241.78;;;1.03;82.26
52249;BME280;38541;48.130;8.378;2022-11-20T04:13:46;92240.66;;;1.18;82.90
52249;BME280;38541;48.130;8.378;2022-11-20T04:16:13;92243.16;;;1.24;81.91
52249;BME280;38541;48.130;8.378;2022-11-20T04:18:39;92243.00;;;1.38;82.44
52249;BME280;38541;48.130;8.378;2022-11-20T04:21:06;92243.94;;;1.44;82.42
52249;BME280;38541;48.130;8.378;2022-11-20T04:23:33;92236.31;;;1.49;82.06
52249;BME280;38541;48.130;8.378;2022-11-20T04:26:05;92247.94;;;1.58;82.64
52249;BME280;38541;48.130;8.378;2022-11-20T04:28:32;92237.84;;;1.68;82.35
52249;BME280;38541;48.130;8.378;2022-11-20T04:31:04;92238.91;;;1.79;82.22
52249;BME280;38541;48.130;8.378;2022-11-20T04:33:31;92238.81;;;1.86;82.39
52249;BME280;38541;48.130;8.378;2022-11-20T04:36:04;92243.91;;;1.93;81.71
52249;BME280;38541;48.130;8.378;2022-11-20T04:38:31;92240.63;;;1.97;81.29
52249;BME280;38541;48.130;8.378;2022-11-20T04:40:59;92249.00;;;1.99;81.17
52249;BME280;38541;48.130;8.378;2022-11-20T04:43:26;92246.97;;;2.02;80.80
52249;BME280;38541;48.130;8.378;2022-11-20T04:45:54;92242.25;;;2.10;80.77
52249;BME280;38541;48.130;8.378;2022-11-20T04:48:21;92242.81;;;2.12;80.57
52249;BME280;38541;48.130;8.378;2022-11-20T04:50:48;92240.56;;;2.16;80.72
52249;BME280;38541;48.130;8.378;2022-11-20T04:53:15;92243.59;;;2.13;80.53
52249;BME280;38541;48.130;8.378;2022-11-20T04:55:41;92243.59;;;2.13;80.70
52249;BME280;38541;48.130;8.378;2022-11-20T04:58:08;92242.59;;;2.14;80.71
52249;BME280;38541;48.130;8.378;2022-11-20T05:00:34;92246.63;;;2.10;79.87
52249;BME280;38541;48.130;8.378;2022-11-20T05:03:01;92240.81;;;2.14;80.16
52249;BME280;38541;48.130;8.378;2022-11-20T05:05:27;92253.88;;;2.20;80.75
52249;BME280;38541;48.130;8.378;2022-11-20T05:07:56;92244.72;;;2.17;80.54
52249;BME280;38541;48.130;8.378;2022-11-20T05:10:26;92245.09;;;2.21;80.80
52249;BME280;38541;48.130;8.378;2022-11-20T05:12:53;92243.41;;;2.26;80.87
52249;BME280;38541;48.130;8.378;2022-11-20T05:15:20;92243.41;;;2.26;81.32
52249;BME280;38541;48.130;8.378;2022-11-20T05:17:50;92251.84;;;2.34;80.56
52249;BME280;38541;48.130;8.378;2022-11-20T05:20:18;92236.88;;;2.36;81.13
52249;BME280;38541;48.130;8.378;2022-11-20T05:22:44;92240.81;;;2.38;80.82
52249;BME280;38541;48.130;8.378;2022-11-20T05:25:11;92246.38;;;2.42;80.64
52249;BME280;38541;48.130;8.378;2022-11-20T05:27:38;92244.22;;;2.39;81.19
52249;BME280;38541;48.130;8.378;2022-11-20T05:30:05;92246.56;;;2.40;81.58
52249;BME280;38541;48.130;8.378;2022-11-20T05:32:32;92254.69;;;2.44;81.47
52249;BME280;38541;48.130;8.378;2022-11-20T05:34:58;92252.22;;;2.49;81.79
52249;BME280;38541;48.130;8.378;2022-11-20T05:37:25;92243.44;;;2.50;81.46
52249;BME280;38541;48.130;8.378;2022-11-20T05:39:52;92243.44;;;2.50;80.78
52249;BME280;38541;48.130;8.378;2022-11-20T05:42:18;92249.53;;;2.44;81.46
52249;BME280;38541;48.130;8.378;2022-11-20T05:45:02;92247.38;;;2.41;81.53
52249;BME280;38541;48.130;8.378;2022-11-20T05:47:33;92241.94;;;2.42;81.57
52249;BME280;38541;48.130;8.378;2022-11-20T05:50:00;92251.88;;;2.46;81.29
52249;BME280;38541;48.130;8.378;2022-11-20T05:52:30;92243.88;;;2.47;81.29
52249;BME280;38541;48.130;8.378;2022-11-20T05:54:57;92238.34;;;2.43;80.83
52249;BME280;38541;48.130;8.378;2022-11-20T05:57:23;92247.50;;;2.46;81.53
52249;BME280;38541;48.130;8.378;2022-11-20T05:59:49;92254.69;;;2.44;81.47
52249;BME280;38541;48.130;8.378;2022-11-20T06:02:16;92262.25;;;2.46;81.26
52249;BME280;38541;48.130;8.378;2022-11-20T06:04:42;92241.84;;;2.49;81.55
52249;BME280;38541;48.130;8.378;2022-11-20T06:07:09;92247.59;;;2.51;81.60
52249;BME280;38541;48.130;8.378;2022-11-20T06:09:35;92248.97;;;2.54;82.01
52249;BME280;38541;48.130;8.378;2022-11-20T06:12:02;92250.34;;;2.56;81.37
52249;BME280;38541;48.130;8.378;2022-11-20T06:14:28;92246.72;;;2.58;81.85
52249;BME280;38541;48.130;8.378;2022-11-20T06:16:55;92250.44;;;2.62;81.79
52249;BME280;38541;48.130;8.378;2022-11-20T06:19:21;92251.44;;;2.61;82.03
52249;BME280;38541;48.130;8.378;2022-11-20T06:21:49;92252.00;;;2.63;81.50
52249;BME280;38541;48.130;8.378;2022-11-20T06:24:16;92259.22;;;2.61;82.15
52249;BME280;38541;48.130;8.378;2022-11-20T06:26:43;92260.81;;;2.62;81.88
52249;BME280;38541;48.130;8.378;2022-11-20T06:29:10;92264.97;;;2.63;81.74
52249;BME280;38541;48.130;8.378;2022-11-20T06:31:36;92257.56;;;2.66;81.80
52249;BME280;38541;48.130;8.378;2022-11-20T06:34:05;92264.88;;;2.69;81.52
52249;BME280;38541;48.130;8.378;2022-11-20T06:36:32;92267.38;;;2.76;81.39
52249;BME280;38541;48.130;8.378;2022-11-20T06:39:00;92268.03;;;2.83;82.05
52249;BME280;38541;48.130;8.378;2022-11-20T06:41:26;92263.19;;;2.87;81.16
52249;BME280;38541;48.130;8.378;2022-11-20T06:43:54;92265.88;;;2.92;81.87
52249;BME280;38541;48.130;8.378;2022-11-20T06:46:21;92261.47;;;2.93;81.69
52249;BME280;38541;48.130;8.378;2022-11-20T06:48:48;92262.72;;;2.90;81.49
52249;BME280;38541;48.130;8.378;2022-11-20T06:51:15;92266.44;;;2.94;81.42
52249;BME280;38541;48.130;8.378;2022-11-20T06:53:41;92272.88;;;3.04;80.85
52249;BME280;38541;48.130;8.378;2022-11-20T06:56:08;92275.34;;;3.10;81.14
52249;BME280;38541;48.130;8.378;2022-11-20T06:58:35;92273.31;;;3.12;80.96
52249;BME280;38541;48.130;8.378;2022-11-20T07:01:07;92279.63;;;3.17;80.72
52249;BME280;38541;48.130;8.378;2022-11-20T07:03:35;92271.72;;;3.23;80.85
52249;BME280;38541;48.130;8.378;2022-11-20T07:06:02;92277.25;;;3.27;80.61
52249;BME280;38541;48.130;8.378;2022-11-20T07:08:29;92272.03;;;3.27;80.03
52249;BME280;38541;48.130;8.378;2022-11-20T07:11:00;92282.22;;;3.28;80.69
52249;BME280;38541;48.130;8.378;2022-11-20T07:13:27;92277.69;;;3.24;80.14
52249;BME280;38541;48.130;8.378;2022-11-20T07:15:54;92264.03;;;3.28;80.36
52249;BME280;38541;48.130;8.378;2022-11-20T07:18:21;92273.16;;;3.31;80.58
52249;BME280;38541;48.130;8.378;2022-11-20T07:20:47;92286.16;;;3.43;80.74
52249;BME280;38541;48.130;8.378;2022-11-20T07:23:14;92282.25;;;3.57;80.12
52249;BME280;38541;48.130;8.378;2022-11-20T07:25:40;92282.69;;;3.66;79.66
52249;BME280;38541;48.130;8.378;2022-11-20T07:28:06;92285.53;;;3.65;78.96
52249;BME280;38541;48.130;8.378;2022-11-20T07:30:33;92294.09;;;3.65;79.59
52249;BME280;38541;48.130;8.378;2022-11-20T07:32:59;92288.91;;;3.65;79.56
52249;BME280;38541;48.130;8.378;2022-11-20T07:35:26;92287.66;;;3.68;79.03
52249;BME280;38541;48.130;8.378;2022-11-20T07:37:52;92295.19;;;3.69;78.82
52249;BME280;38541;48.130;8.378;2022-11-20T07:40:19;92296.81;;;3.70;79.06
52249;BME280;38541;48.130;8.378;2022-11-20T07:42:50;92292.72;;;3.75;79.09
52249;BME280;38541;48.130;8.378;2022-11-20T07:45:21;92291.63;;;3.70;78.74
52249;BME280;38541;48.130;8.378;2022-11-20T07:47:48;92294.78;;;3.73;78.99
52249;BME280;38541;48.130;8.378;2022-11-20T07:50:15;92302.59;;;3.61;78.78
52249;BME280;38541;48.130;8.378;2022-11-20T07:52:42;92308.09;;;3.64;78.95
52249;BME280;38541;48.130;8.378;2022-11-20T07:55:09;92298.19;;;3.61;78.67
52249;BME280;38541;48.130;8.378;2022-11-20T07:57:36;92297.06;;;3.57;78.84
52249;BME280;38541;48.130;8.378;2022-11-20T08:00:04;92291.97;;;3.62;79.51
52249;BME280;38541;48.130;8.378;2022-11-20T08:02:38;92295.19;;;3.69;79.44
52249;BME280;38541;48.130;8.378;2022-11-20T08:05:06;92288.22;;;3.70;79.21
52249;BME280;38541;48.130;8.378;2022-11-20T08:07:41;92281.41;;;3.81;79.17
52249;BME280;38541;48.130;8.378;2022-11-20T08:10:09;92278.88;;;3.98;79.98
52249;BME280;38541;48.130;8.378;2022-11-20T08:12:36;92290.44;;;4.07;79.06
52249;BME280;38541;48.130;8.378;2022-11-20T08:15:28;92288.13;;;4.23;78.59
52249;BME280;38541;48.130;8.378;2022-11-20T08:18:05;92291.63;;;4.28;77.48
52249;BME280;38541;48.130;8.378;2022-11-20T08:20:52;92292.63;;;4.27;78.51
52249;BME280;38541;48.130;8.378;2022-11-20T08:23:18;92298.31;;;4.41;77.94
52249;BME280;38541;48.130;8.378;2022-11-20T08:25:48;92307.94;;;4.41;77.68
52249;BME280;38541;48.130;8.378;2022-11-20T08:28:15;92319.34;;;4.40;77.82
52249;BME280;38541;48.130;8.378;2022-11-20T08:30:47;92317.00;;;4.38;78.16
52249;BME280;38541;48.130;8.378;2022-11-20T08:33:13;92317.28;;;4.25;77.46
52249;BME280;38541;48.130;8.378;2022-11-20T08:35:40;92314.50;;;4.14;78.42
52249;BME280;38541;48.130;8.378;2022-11-20T08:38:08;92317.41;;;4.18;78.60
52249;BME280;38541;48.130;8.378;2022-11-20T08:40:35;92316.66;;;4.18;78.61
52249;BME280;38541;48.130;8.378;2022-11-20T08:43:01;92312.69;;;4.15;78.61
52249;BME280;38541;48.130;8.378;2022-11-20T08:45:27;92319.66;;;4.26;78.31
52249;BME280;38541;48.130;8.378;2022-11-20T08:48:00;92328.47;;;4.25;78.68
52249;BME280;38541;48.130;8.378;2022-11-20T08:50:27;92321.53;;;4.31;78.36
52249;BME280;38541;48.130;8.378;2022-11-20T08:52:54;92329.19;;;4.38;77.71
52249;BME280;38541;48.130;8.378;2022-11-20T08:55:20;92329.28;;;4.43;78.03
52249;BME280;38541;48.130;8.378;2022-11-20T08:57:46;92312.56;;;4.39;77.50
52249;BME280;38541;48.130;8.378;2022-11-20T09:00:16;92327.41;;;4.38;77.72
52249;BME280;38541;48.130;8.378;2022-11-20T09:02:43;92333.84;;;4.36;77.96
52249;BME280;38541;48.130;8.378;2022-11-20T09:05:09;92334.97;;;4.40;77.78
52249;BME280;38541;48.130;8.378;2022-11-20T09:07:35;92325.16;;;4.30;77.35
52249;BME280;38541;48.130;8.378;2022-11-20T09:10:02;92337.16;;;4.31;77.83
52249;BME280;38541;48.130;8.378;2022-11-20T09:12:49;92336.03;;;4.27;77.71
52249;BME280;38541;48.130;8.378;2022-11-20T09:15:17;92341.56;;;4.31;78.05
52249;BME280;38541;48.130;8.378;2022-11-20T09:17:55;92345.38;;;4.11;77.35
52249;BME280;38541;48.130;8.378;2022-11-20T09:20:21;92341.69;;;3.95;77.34
52249;BME280;38541;48.130;8.378;2022-11-20T09:22:48;92342.47;;;3.95;77.91
52249;BME280;38541;48.130;8.378;2022-11-20T09:25:14;92337.63;;;3.99;78.32
52249;BME280;38541;48.130;8.378;2022-11-20T09:27:41;92352.53;;;3.92;77.84
52249;BME280;38541;48.130;8.378;2022-11-20T09:30:10;92347.94;;;3.82;78.34
52249;BME280;38541;48.130;8.378;2022-11-20T09:32:38;92353.56;;;3.91;78.54
52249;BME280;38541;48.130;8.378;2022-11-20T09:35:05;92357.66;;;3.87;77.97
52249;BME280;38541;48.130;8.378;2022-11-20T09:37:32;92356.84;;;3.98;79.57
52249;BME280;38541;48.130;8.378;2022-11-20T09:39:58;92352.97;;;4.00;78.45
52249;BME280;38541;48.130;8.378;2022-11-20T09:42:40;92358.03;;;4.07;78.73
52249;BME280;38541;48.130;8.378;2022-11-20T09:45:21;92357.56;;;4.10;78.31
52249;BME280;38541;48.130;8.378;2022-11-20T09:48:01;92359.06;;;4.06;78.43
52249;BME280;38541;48.130;8.378;2022-11-20T09:56:25;92363.53;;;3.82;78.80
52249;BME280;38541;48.130;8.378;2022-11-20T09:58:54;92353.22;;;3.87;79.03
52249;BME280;38541;48.130;8.378;2022-11-20T10:01:25;92364.41;;;3.88;79.32
52249;BME280;38541;48.130;8.378;2022-11-20T10:04:18;92360.59;;;3.90;79.30
52249;BME280;38541;48.130;8.378;2022-11-20T10:10:04;92360.34;;;3.92;78.89
52249;BME280;38541;48.130;8.378;2022-11-20T10:17:52;92374.75;;;3.70;78.95
52249;BME280;38541;48.130;8.378;2022-11-20T10:26:35;92371.81;;;3.55;79.15
52249;BME280;38541;48.130;8.378;2022-11-20T10:29:19;92363.56;;;3.70;79.79
52249;BME280;38541;48.130;8.378;2022-11-20T10:31:56;92362.16;;;3.91;79.70
52249;BME280;38541;48.130;8.378;2022-11-20T10:36:56;92356.13;;;4.03;78.88
52249;BME280;38541;48.130;8.378;2022-11-20T10:39:33;92355.47;;;3.95;78.59
52249;BME280;38541;48.130;8.378;2022-11-20T10:42:01;92359.44;;;3.86;79.09
52249;BME280;38541;48.130;8.378;2022-11-20T10:44:29;92355.66;;;4.06;79.28
52249;BME280;38541;48.130;8.378;2022-11-20T10:47:20;92351.09;;;4.25;77.72
52249;BME280;38541;48.130;8.378;2022-11-20T10:50:01;92347.06;;;4.34;77.54
52249;BME280;38541;48.130;8.378;2022-11-20T11:00:37;92353.06;;;4.06;76.87
52249;BME280;38541;48.130;8.378;2022-11-20T11:03:32;92347.84;;;4.06;77.65
52249;BME280;38541;48.130;8.378;2022-11-20T11:06:06;92338.69;;;4.15;78.15
52249;BME280;38541;48.130;8.378;2022-11-20T11:08:37;92339.88;;;4.24;77.54
52249;BME280;38541;48.130;8.378;2022-11-20T11:13:46;92329.91;;;4.33;76.87
52249;BME280;38541;48.130;8.378;2022-11-20T11:16:30;92338.59;;;4.39;76.50
52249;BME280;38541;48.130;8.378;2022-11-20T11:19:11;92320.81;;;4.19;76.51
52249;BME280;38541;48.130;8.378;2022-11-20T11:21:46;92328.78;;;4.29;76.29
52249;BME280;38541;48.130;8.378;2022-11-20T11:24:27;92318.72;;;4.33;76.83
52249;BME280;38541;48.130;8.378;2022-11-20T11:27:13;92316.81;;;4.45;76.08
52249;BME280;38541;48.130;8.378;2022-11-20T11:29:43;92308.81;;;4.64;75.56
52249;BME280;38541;48.130;8.378;2022-11-20T11:34:39;92308.34;;;4.84;74.50
52249;BME280;38541;48.130;8.378;2022-11-20T11:37:18;92304.25;;;4.88;75.13
52249;BME280;38541;48.130;8.378;2022-11-20T11:39:46;92300.94;;;4.76;74.92
52249;BME280;38541;48.130;8.378;2022-11-20T11:42:24;92290.53;;;4.93;74.56
52249;BME280;38541;48.130;8.378;2022-11-20T11:44:51;92296.09;;;5.19;74.37
52249;BME280;38541;48.130;8.378;2022-11-20T11:47:37;92283.47;;;5.50;75.14
52249;BME280;38541;48.130;8.378;2022-11-20T11:52:51;92284.28;;;5.50;73.00
52249;BME280;38541;48.130;8.378;2022-11-20T11:55:35;92275.72;;;5.33;73.36
52249;BME280;38541;48.130;8.378;2022-11-20T12:01:10;92277.66;;;5.03;73.35
52249;BME280;38541;48.130;8.378;2022-11-20T12:03:38;92275.84;;;5.04;72.61
52249;BME280;38541;48.130;8.378;2022-11-20T12:06:13;92276.22;;;5.12;72.87
52249;BME280;38541;48.130;8.378;2022-11-20T12:08:54;92276.69;;;5.09;70.07
52249;BME280;38541;48.130;8.378;2022-11-20T12:11:32;92280.59;;;4.90;71.46
52249;BME280;38541;48.130;8.378;2022-11-20T12:14:31;92273.75;;;5.23;73.38
52249;BME280;38541;48.130;8.378;2022-11-20T12:17:01;92276.50;;;5.33;71.03
52249;BME280;38541;48.130;8.378;2022-11-20T12:19:30;92262.78;;;5.21;71.11
52249;BME280;38541;48.130;8.378;2022-11-20T12:22:11;92261.47;;;5.01;72.91
52249;BME280;38541;48.130;8.378;2022-11-20T12:30:48;92251.16;;;5.28;73.34
52249;BME280;38541;48.130;8.378;2022-11-20T12:36:56;92246.50;;;5.08;72.54
52249;BME280;38541;48.130;8.378;2022-11-20T12:39:41;92253.47;;;5.47;73.06
52249;BME280;38541;48.130;8.378;2022-11-20T12:48:30;92249.94;;;6.03;67.80
52249;BME280;38541;48.130;8.378;2022-11-20T12:54:11;92246.94;;;6.17;68.03
52249;BME280;38541;48.130;8.378;2022-11-20T12:56:54;92246.72;;;6.18;66.52
52249;BME280;38541;48.130;8.378;2022-11-20T13:04:59;92258.38;;;5.21;69.08
52249;BME280;38541;48.130;8.378;2022-11-20T13:07:28;92253.47;;;5.25;69.70
52249;BME280;38541;48.130;8.378;2022-11-20T13:09:54;92248.44;;;5.18;69.26
52249;BME280;38541;48.130;8.378;2022-11-20T13:12:36;92261.78;;;5.22;69.12
52249;BME280;38541;48.130;8.378;2022-11-20T13:18:00;92242.09;;;4.92;70.19
52249;BME280;38541;48.130;8.378;2022-11-20T13:20:29;92241.28;;;4.91;70.40
52249;BME280;38541;48.130;8.378;2022-11-20T13:22:57;92249.03;;;5.03;70.32
52249;BME280;38541;48.130;8.378;2022-11-20T13:25:34;92243.09;;;5.08;71.01
52249;BME280;38541;48.130;8.378;2022-11-20T13:28:59;92238.13;;;5.06;69.97
52249;BME280;38541;48.130;8.378;2022-11-20T13:30:55;92231.84;;;5.47;71.17
52249;BME280;38541;48.130;8.378;2022-11-20T13:33:33;92224.47;;;5.88;70.19
52249;BME280;38541;48.130;8.378;2022-11-20T13:36:06;92215.41;;;6.18;68.63
52249;BME280;38541;48.130;8.378;2022-11-20T13:38:50;92217.94;;;6.13;66.18
52249;BME280;38541;48.130;8.378;2022-11-20T13:41:35;92204.16;;;5.90;67.07
52249;BME280;38541;48.130;8.378;2022-11-20T13:44:13;92203.84;;;5.86;66.67
52249;BME280;38541;48.130;8.378;2022-11-20T13:46:41;92197.53;;;5.77;68.19
52249;BME280;38541;48.130;8.378;2022-11-20T13:49:18;92206.06;;;5.72;68.21
52249;BME280;38541;48.130;8.378;2022-11-20T13:51:47;92204.13;;;5.63;66.82
52249;BME280;38541;48.130;8.378;2022-11-20T14:02:40;92202.22;;;5.53;68.43
52249;BME280;38541;48.130;8.378;2022-11-20T14:05:17;92197.41;;;5.67;68.70
52249;BME280;38541;48.130;8.378;2022-11-20T14:07:45;92204.94;;;5.63;67.68
52249;BME280;38541;48.130;8.378;2022-11-20T14:10:22;92199.50;;;5.42;68.15
52249;BME280;38541;48.130;8.378;2022-11-20T14:12:57;92199.38;;;5.32;68.86
52249;BME280;38541;48.130;8.378;2022-11-20T14:15:32;92209.84;;;5.37;68.38
52249;BME280;38541;48.130;8.378;2022-11-20T14:18:10;92196.72;;;5.27;68.56
52249;BME280;38541;48.130;8.378;2022-11-20T14:20:37;92187.06;;;5.50;68.61
52249;BME280;38541;48.130;8.378;2022-11-20T14:23:09;92177.34;;;5.67;68.57
52249;BME280;38541;48.130;8.378;2022-11-20T14:25:36;92168.16;;;5.87;67.98
52249;BME280;38541;48.130;8.378;2022-11-20T14:28:04;92164.41;;;6.05;67.04
52249;BME280;38541;48.130;8.378;2022-11-20T14:30:44;92153.81;;;6.50;65.56
52249;BME280;38541;48.130;8.378;2022-11-20T14:33:14;92147.66;;;6.66;65.61
52249;BME280;38541;48.130;8.378;2022-11-20T14:35:46;92145.50;;;7.96;61.09
52249;BME280;38541;48.130;8.378;2022-11-20T14:38:17;92154.34;;;7.00;62.34
52249;BME280;38541;48.130;8.378;2022-11-20T14:40:45;92164.66;;;6.74;63.64
52249;BME280;38541;48.130;8.378;2022-11-20T14:43:25;92150.34;;;6.06;64.83
52249;BME280;38541;48.130;8.378;2022-11-20T14:45:56;92153.72;;;6.02;66.57
52249;BME280;38541;48.130;8.378;2022-11-20T14:48:29;92152.22;;;5.83;65.61
52249;BME280;38541;48.130;8.378;2022-11-20T14:50:58;92145.06;;;5.68;66.68
52249;BME280;38541;48.130;8.378;2022-11-20T14:53:25;92145.25;;;5.62;67.42
52249;BME280;38541;48.130;8.378;2022-11-20T14:55:59;92146.53;;;5.59;67.58
52249;BME280;38541;48.130;8.378;2022-11-20T14:58:29;92137.69;;;5.60;66.97